createdAt,value
2023-05-02T00:05:08.680Z,43.9
2023-05-02T00:11:14.472Z,43.6
2023-05-02T00:17:20.741Z,43.8
2023-05-02T00:23:26.052Z,43.8
2023-05-02T00:29:31.963Z,43.8
2023-05-02T00:35:37.348Z,43.9
2023-05-02T00:41:42.530Z,43.9
2023-05-02T00:47:48.179Z,43.7
2023-05-02T00:53:54.265Z,43.8
2023-05-02T01:00:00.833Z,43.9
2023-05-02T01:06:06.474Z,43.8
2023-05-02T01:12:12.407Z,44.1
2023-05-02T01:18:18.382Z,43.9
2023-05-02T01:24:23.985Z,43.9
2023-05-02T01:30:29.131Z,43.8
2023-05-02T01:36:33.914Z,43.9
2023-05-02T01:42:39.451Z,43.9
2023-05-02T01:48:44.706Z,43.8
2023-05-02T01:54:50.404Z,43.8
2023-05-02T02:00:55.857Z,43.9
2023-05-02T02:07:01.429Z,43.8
2023-05-02T02:13:06.967Z,43.9
2023-05-02T02:19:12.361Z,43.9
2023-05-02T02:25:18.315Z,43.9
2023-05-02T02:31:24.474Z,43.9
2023-05-02T02:37:30.087Z,44.1
2023-05-02T02:43:35.792Z,43.9
2023-05-02T02:49:41.432Z,43.9
2023-05-02T02:55:46.756Z,43.8
2023-05-02T03:01:52.997Z,43.9
2023-05-02T03:07:58.093Z,43.9
2023-05-02T03:14:02.906Z,44
2023-05-02T03:20:08.000Z,44
2023-05-02T03:26:13.856Z,43.9
2023-05-02T03:32:19.353Z,43.8
2023-05-02T03:38:24.988Z,43.7
2023-05-02T03:44:30.313Z,43.5
2023-05-02T03:50:35.871Z,43.7
2023-05-02T03:56:44.912Z,43.7
2023-05-02T04:02:50.902Z,43.7
2023-05-02T04:08:56.965Z,43.5
2023-05-02T04:15:02.874Z,43.4
2023-05-02T04:21:08.498Z,43.3
2023-05-02T04:27:17.730Z,43.3
2023-05-02T04:33:23.685Z,43.3
2023-05-02T04:39:28.916Z,43.2
2023-05-02T04:45:34.616Z,43.1
2023-05-02T04:51:40.652Z,43
2023-05-02T04:57:46.789Z,43.1
2023-05-02T05:03:52.767Z,43.1
2023-05-02T05:09:58.908Z,43
2023-05-02T05:16:04.861Z,43.2
2023-05-02T05:22:10.540Z,43.2
2023-05-02T05:28:16.710Z,43.3
2023-05-02T05:34:22.080Z,43.1
2023-05-02T05:40:27.648Z,43.1
2023-05-02T05:46:33.644Z,43.2
2023-05-02T05:52:39.601Z,43.1
2023-05-02T05:58:45.430Z,43.1
2023-05-02T06:04:51.601Z,43.1
2023-05-02T06:10:57.438Z,43.2
2023-05-02T06:17:03.137Z,43.2
2023-05-02T06:23:09.094Z,43
2023-05-02T06:29:14.895Z,43.1
2023-05-02T06:35:20.243Z,43
2023-05-02T06:41:26.318Z,43.1
2023-05-02T06:47:32.065Z,43
2023-05-02T06:53:37.592Z,43
2023-05-02T06:59:43.429Z,42.9
2023-05-02T07:05:48.961Z,42.9
2023-05-02T07:11:54.514Z,42.9
2023-05-02T07:17:59.746Z,42.9
2023-05-02T07:24:05.654Z,42.8
2023-05-02T07:30:11.297Z,42.7
2023-05-02T07:36:17.013Z,43
2023-05-02T07:42:23.041Z,42.9
2023-05-02T07:48:31.276Z,43
2023-05-02T07:54:37.421Z,43.1
2023-05-02T08:00:43.222Z,43
2023-05-02T08:06:49.026Z,42.9
2023-05-02T08:12:54.749Z,42.8
2023-05-02T08:19:00.426Z,43.1
2023-05-02T08:25:06.313Z,42.8
2023-05-02T08:31:12.155Z,42.9
2023-05-02T08:37:17.847Z,42.7
2023-05-02T08:43:24.241Z,42.8
2023-05-02T08:49:30.637Z,42.8
2023-05-02T08:55:36.821Z,42.7
2023-05-02T09:01:42.626Z,43.1
2023-05-02T09:07:48.793Z,42.8
2023-05-02T09:13:54.372Z,43
2023-05-02T09:20:00.170Z,42.8
2023-05-02T09:26:06.129Z,42.9
2023-05-02T09:32:12.145Z,42.9
2023-05-02T09:38:17.665Z,42.9
2023-05-02T09:44:22.690Z,43
2023-05-02T09:50:28.624Z,42.7
2023-05-02T09:56:34.036Z,42.9
2023-05-02T10:02:41.238Z,43.1
2023-05-02T10:08:46.213Z,43
2023-05-02T10:14:51.744Z,42.8
2023-05-02T10:20:57.789Z,43.1
2023-05-02T10:27:03.559Z,43
2023-05-02T10:33:09.181Z,42.6
2023-05-02T10:39:15.478Z,42.9
2023-05-02T10:45:20.496Z,42.6
2023-05-02T10:51:26.181Z,42.8
2023-05-02T10:57:31.757Z,42.7
2023-05-02T11:03:37.131Z,42.9
2023-05-02T11:09:43.321Z,42.9
2023-05-02T11:15:48.952Z,42.9
2023-05-02T11:21:54.909Z,42.9
2023-05-02T11:28:00.715Z,42.8
2023-05-02T11:34:06.425Z,42.7
2023-05-02T11:40:12.004Z,43.1
2023-05-02T11:46:17.995Z,42.9
2023-05-02T11:52:24.226Z,43
2023-05-02T11:58:29.541Z,42.7
2023-05-02T12:04:34.913Z,42.9
2023-05-02T12:10:40.903Z,42.8
2023-05-02T12:16:46.940Z,43
2023-05-02T12:22:52.518Z,42.8
2023-05-02T12:28:58.643Z,42.8
2023-05-02T12:35:04.208Z,42.9
2023-05-02T12:41:10.591Z,43.2
2023-05-02T12:47:17.324Z,42.8
2023-05-02T12:53:23.430Z,42.9
2023-05-02T12:59:28.953Z,43
2023-05-02T13:05:34.519Z,42.6
2023-05-02T13:11:40.145Z,43
2023-05-02T13:17:46.386Z,42.7
2023-05-02T13:23:52.874Z,42.8
2023-05-02T13:29:58.538Z,42.7
2023-05-02T13:36:04.655Z,42.9
2023-05-02T13:42:10.254Z,42.6
2023-05-02T13:48:15.692Z,42.8
2023-05-02T13:54:21.614Z,42.6
2023-05-02T14:00:27.147Z,42.6
2023-05-02T14:06:32.997Z,42.9
2023-05-02T14:12:38.494Z,42.5
2023-05-02T14:18:44.130Z,42.7
2023-05-02T14:24:49.858Z,42.6
2023-05-02T14:30:55.309Z,42.6
2023-05-02T14:37:01.599Z,42.7
2023-05-02T14:43:08.396Z,42.9
2023-05-02T14:49:13.962Z,42.7
2023-05-02T14:55:19.806Z,43.1
2023-05-02T15:01:25.738Z,42.8
2023-05-02T15:07:31.572Z,42.9
2023-05-02T15:13:37.480Z,42.8
2023-05-02T15:19:42.715Z,42.7
2023-05-02T15:25:48.640Z,42.8
2023-05-02T15:31:54.287Z,42.7
2023-05-02T15:37:59.983Z,42.4
2023-05-02T15:44:05.405Z,42.4
2023-05-02T15:50:11.551Z,42.6
2023-05-02T15:56:16.602Z,42.4
2023-05-02T16:02:21.932Z,42.4
2023-05-02T16:08:27.596Z,42.3
2023-05-02T16:14:33.836Z,42.5
2023-05-02T16:20:39.630Z,42.6
2023-05-02T16:26:45.612Z,42.4
2023-05-02T16:32:50.788Z,42.5
2023-05-02T16:38:55.769Z,42.4
2023-05-02T16:45:01.213Z,42.5
2023-05-02T16:51:07.537Z,42.6
2023-05-02T16:57:12.920Z,42.4
2023-05-02T17:03:18.799Z,42.7
2023-05-02T17:09:24.604Z,42.6
2023-05-02T17:15:30.162Z,42.7
2023-05-02T17:21:36.634Z,42.8
2023-05-02T17:27:44.601Z,42.7
2023-05-02T17:33:50.982Z,42.8
2023-05-02T17:39:56.372Z,42.8
2023-05-02T17:46:01.925Z,42.7
2023-05-02T17:52:07.495Z,42.6
2023-05-02T17:58:13.271Z,42.7
2023-05-02T18:04:19.269Z,42.7
2023-05-02T18:10:25.243Z,42.9
2023-05-02T18:16:31.266Z,42.9
2023-05-02T18:22:36.798Z,42.9
2023-05-02T18:28:44.659Z,42.8
2023-05-02T18:34:50.289Z,42.7
2023-05-02T18:40:55.788Z,42.9
2023-05-02T18:47:01.738Z,42.8
2023-05-02T18:53:07.528Z,42.8
2023-05-02T18:59:13.105Z,42.7
2023-05-02T19:05:18.529Z,42.9
2023-05-02T19:11:24.669Z,42.9
2023-05-02T19:17:30.384Z,43
2023-05-02T19:23:35.818Z,43.1
2023-05-02T19:29:42.072Z,43.1
2023-05-02T19:35:47.985Z,43.1
2023-05-02T19:41:53.990Z,43
2023-05-02T19:48:00.899Z,43.1
2023-05-02T19:54:07.175Z,43.1
2023-05-02T20:00:12.742Z,43.1
2023-05-02T20:06:18.939Z,42.9
2023-05-02T20:12:24.897Z,43.1
2023-05-02T20:18:30.450Z,42.9
2023-05-02T20:24:37.060Z,43.2
2023-05-02T20:30:43.133Z,43.1
2023-05-02T20:36:48.630Z,43.1
2023-05-02T20:42:54.619Z,43.1
2023-05-02T20:49:00.586Z,43.1
2023-05-02T20:55:06.783Z,43.1
2023-05-02T21:01:12.583Z,43.2
2023-05-02T21:07:18.128Z,43.1
2023-05-02T21:13:24.163Z,43.2
2023-05-02T21:19:29.898Z,43.4
2023-05-02T21:25:35.736Z,43.1
2023-05-02T21:31:41.673Z,43.4
2023-05-02T21:37:47.725Z,43.4
2023-05-02T21:43:53.605Z,43.2
2023-05-02T21:49:59.509Z,43.3
2023-05-02T21:56:05.765Z,43.3
2023-05-02T22:02:11.746Z,43.2
2023-05-02T22:08:17.759Z,43.2
2023-05-02T22:14:44.074Z,43.3
2023-05-02T22:20:51.419Z,43.1
2023-05-02T22:26:57.264Z,43.3
2023-05-02T22:33:02.614Z,43.2
2023-05-02T22:39:08.880Z,43.2
2023-05-02T22:45:14.546Z,43.2
2023-05-02T22:51:20.765Z,43.1
2023-05-02T22:57:26.496Z,43.1
2023-05-02T23:03:32.644Z,43
2023-05-02T23:09:38.654Z,43
2023-05-02T23:15:44.287Z,43
2023-05-02T23:21:50.219Z,43
2023-05-02T23:27:55.670Z,42.9
2023-05-02T23:34:01.794Z,42.9
2023-05-02T23:40:08.376Z,42.8
2023-05-02T23:46:14.205Z,42.8
2023-05-02T23:52:20.134Z,42.8
2023-05-02T23:58:26.356Z,42.7
